Honolulu, HI

01:40 PM HST am 02. September 2014 (GMT -1000)
Pacific Heights | Change Station
CLOSE
Current Station
Persönliche Wetterstationen
Location: Honolulu, HI
Höhe: 528 ft
Wetterstationen in der Umgebung

Höhe 528 ft 21.33 °N, 157.84 °W | Updated 9 seconds ago

Scattered Clouds
Teils Wolkig
85.3 °F
gefühlte 92 °F
N
0.9
Wind Wechselnd Wind aus Südwest
Gusts 6.0 mph

Heute
Max. -- | schwach -- °F
--% Regenrisiko
Gestern
Max. -- | schwach -- °F
Precip. -- inch
6:15 AM 6:46 PM
Erstes Viertel, 56% visible
Druck 29.97 inch
Sichtweite 10.0 Meilen
Wolken Few 2700 ft
Teils Wolkig 4200 ft
Teils Wolkig 5500 ft
Hitzeindex 92 °F
Taupunkt 72 °F
Feuchtigkeit 65%
Regen 0.00 inch
Schneehöhe Nicht verfügbar..
UV 10 von 12
Pollen Nicht verfügbar..
PM2.5 Gut
Flu Activity Nicht verfügbar..
METAR PHNL 022253Z 06013G22KT 10SM FEW027 SCT042 SCT055 32/19 A2997 RMK AO2 SLP147 T03170189

More Conditions Fewer Conditions

Druck 29.97 inch
Sichtweite 10.0 Meilen
Wolken Few 2700 ft
Teils Wolkig 4200 ft
Teils Wolkig 5500 ft
Hitzeindex 92 °F
Taupunkt 72 °F
Feuchtigkeit 65%
Regen 0.00 inch
Schneehöhe Nicht verfügbar..
UV 10 von 12
Pollen Nicht verfügbar..
PM2.5 Gut
Flu Activity Nicht verfügbar..
METAR PHNL 022253Z 06013G22KT 10SM FEW027 SCT042 SCT055 32/19 A2997 RMK AO2 SLP147 T03170189

More Conditions Fewer Conditions

10-Day Weather Forecast

Almanac

Astronomie

Sep. 02, 2014 Aufgang Untergang
Genaue Zeit 06:15 HST 18:46 HST
Bürgerliche Dämmerung 05:52 HST 19:08 HST
Nautische Dämmerung 05:26 HST 19:35 HST
Astronomische Dämmerung 04:59 HST 20:01 HST
Mond 13:18 HST kein Monduntergang
Länge des sichtbaren Lichts 13h 16m
Tageslänge
12h 31m
Tomorrow will be 1m 10s shorter.
Erstes Viertel, 56% of the Moon is Illuminated
Heute
Erstes Viertel
Sept 8
Vollmond
Sept 15
Letztes Viertel
Sept 24
Neu
Okt 1
Erstes Viertel

Heutige Rekorde

State Highs State Lows

Community

WunderPhotos

Upload Photos

1,749,799 Fotos hochgeladen!

Nearby

Luftqualität

  Luftqualität LQ Index Schadstoff
Gestern Gut
PM10
Aktuell Gut
PM2.5
Dienstag Gut
OZONE
Mittwoch Gut
OZONE

Schneehöhe

Station Depth Höhe
Kein Neuschnee gemeldet.

Erdbebenaktivität

Stadt Distance Mag. Time & Date
No recent earthquake activity has been reported nearby.
Minimum magnitude displayed is 2.5.

küstennahe Wassertemperaturen

Ort Temperatur
Kein Stationsbericht

Wetterstationen in der Umgebung